createdAt,value
2017-12-04T00:01:22.647Z,-1.20
2017-12-04T00:03:50.329Z,-1.20
2017-12-04T00:08:45.574Z,-1.20
2017-12-04T00:11:13.668Z,-1.20
2017-12-04T00:13:41.301Z,-1.10
2017-12-04T00:16:08.954Z,-1.20
2017-12-04T00:18:37.561Z,-1.10
2017-12-04T00:21:05.179Z,-1.20
2017-12-04T00:23:32.810Z,-1.10
2017-12-04T00:26:00.487Z,-1.20
2017-12-04T00:28:28.111Z,-1.20
2017-12-04T00:30:55.737Z,-1.30
2017-12-04T00:35:51.375Z,-1.50
2017-12-04T00:38:18.994Z,-1.50
2017-12-04T00:40:46.680Z,-1.40
2017-12-04T00:43:14.296Z,-1.30
2017-12-04T00:45:41.927Z,-1.30
2017-12-04T00:48:09.611Z,-1.30
2017-12-04T00:55:48.489Z,-1.20
2017-12-04T00:58:16.832Z,-1.10
2017-12-04T01:00:44.663Z,-1.00
2017-12-04T01:03:12.294Z,-1.00
2017-12-04T01:05:39.915Z,-1.00
2017-12-04T01:08:07.612Z,-1.00
2017-12-04T01:10:35.238Z,-1.10
2017-12-04T01:13:02.871Z,-1.10
2017-12-04T01:15:30.865Z,-1.00
2017-12-04T01:17:58.496Z,-1.10
2017-12-04T01:20:26.120Z,-1.40
2017-12-04T01:22:53.812Z,-1.30
2017-12-04T01:25:21.444Z,-1.30
2017-12-04T01:27:49.082Z,-1.30
2017-12-04T01:30:17.135Z,-1.30
2017-12-04T01:32:44.769Z,-1.30
2017-12-04T01:35:12.395Z,-1.30
2017-12-04T01:37:40.086Z,-1.40
2017-12-04T01:42:35.332Z,-1.50
2017-12-04T01:45:03.019Z,-1.40
2017-12-04T01:47:30.641Z,-1.50
2017-12-04T01:49:58.269Z,-1.50
2017-12-04T01:54:53.586Z,-1.50
2017-12-04T01:59:49.068Z,-1.60
2017-12-04T02:02:16.695Z,-1.60
2017-12-04T02:04:46.372Z,-1.50
2017-12-04T02:07:13.860Z,-1.50
2017-12-04T02:09:41.487Z,-1.50
2017-12-04T02:12:09.109Z,-1.40
2017-12-04T02:14:36.937Z,-1.30
2017-12-04T02:17:04.563Z,-1.50
2017-12-04T02:22:11.346Z,-1.50
2017-12-04T02:27:18.106Z,-1.20
2017-12-04T02:29:45.730Z,-1.00
2017-12-04T02:32:13.356Z,-0.90
2017-12-04T02:34:41.054Z,-0.90
2017-12-04T02:39:36.334Z,-0.90
2017-12-04T02:42:04.263Z,-1.00
2017-12-04T02:44:31.939Z,-1.10
2017-12-04T02:46:59.564Z,-1.20
2017-12-04T02:49:27.241Z,-1.20
2017-12-04T02:51:54.872Z,-1.20
2017-12-04T02:54:22.491Z,-1.20
2017-12-04T02:56:50.344Z,-1.20
2017-12-04T02:59:17.964Z,-1.30
2017-12-04T03:01:45.588Z,-1.10
2017-12-04T03:04:13.519Z,-1.10
2017-12-04T03:06:41.149Z,-1.10
2017-12-04T03:09:08.782Z,-1.10
2017-12-04T03:11:36.616Z,-0.90
2017-12-04T03:14:04.251Z,-0.90
2017-12-04T03:16:31.881Z,-0.90
2017-12-04T03:18:59.904Z,-0.90
2017-12-04T03:21:27.536Z,-0.80
2017-12-04T03:23:55.165Z,-0.80
2017-12-04T03:26:24.115Z,-0.80
2017-12-04T03:28:51.740Z,-0.90
2017-12-04T03:31:19.371Z,-0.70
2017-12-04T03:33:47.053Z,-0.70
2017-12-04T03:38:42.302Z,-0.70
2017-12-04T03:41:10.125Z,-0.60
2017-12-04T03:43:37.753Z,-0.60
2017-12-04T03:46:05.376Z,-0.60
2017-12-04T03:48:33.363Z,-0.70
2017-12-04T03:53:40.144Z,-0.80
2017-12-04T03:56:07.789Z,-0.80
2017-12-04T03:58:35.419Z,-0.70
2017-12-04T04:01:03.548Z,-0.60
2017-12-04T04:03:31.175Z,-0.60
2017-12-04T04:05:58.803Z,-0.60
2017-12-04T04:08:26.480Z,-0.50
2017-12-04T04:13:21.737Z,-0.50
2017-12-04T04:15:49.816Z,-0.60
2017-12-04T04:18:17.446Z,-0.60
2017-12-04T04:20:45.092Z,-0.80
2017-12-04T04:23:12.769Z,-0.70
2017-12-04T04:25:40.389Z,-0.70
2017-12-04T04:28:08.019Z,-0.80
2017-12-04T04:30:37.610Z,-0.70
2017-12-04T04:33:03.330Z,-0.80
2017-12-04T04:35:30.955Z,-0.70
2017-12-04T04:40:26.417Z,-0.80
2017-12-04T04:42:54.051Z,-0.80
2017-12-04T04:45:21.779Z,-0.70
2017-12-04T04:47:49.403Z,-0.70
2017-12-04T04:50:17.031Z,-0.70
2017-12-04T04:52:45.039Z,-0.70
2017-12-04T04:55:12.651Z,-0.80
2017-12-04T04:57:40.278Z,-0.70
2017-12-04T05:00:07.960Z,-0.70
2017-12-04T05:05:03.212Z,-0.80
2017-12-04T05:07:31.310Z,-0.70
2017-12-04T05:09:58.924Z,-0.70
2017-12-04T05:12:26.552Z,-0.60
2017-12-04T05:14:54.241Z,-0.60
2017-12-04T05:22:28.784Z,-0.70
2017-12-04T05:24:56.445Z,-0.60
2017-12-04T05:27:24.047Z,-0.50
2017-12-04T05:29:51.726Z,-0.50
2017-12-04T05:32:19.355Z,-0.40
2017-12-04T05:34:46.983Z,-0.50
2017-12-04T05:37:14.900Z,-0.60
2017-12-04T05:39:42.525Z,-0.50
2017-12-04T05:42:10.148Z,-0.50
2017-12-04T05:44:37.827Z,-0.50
2017-12-04T05:47:05.454Z,-0.50
2017-12-04T05:49:33.089Z,-0.60
2017-12-04T05:52:00.925Z,-1.00
2017-12-04T05:54:28.550Z,-1.00
2017-12-04T05:56:56.178Z,-0.90
2017-12-04T05:59:23.857Z,-1.00
2017-12-04T06:01:52.310Z,-0.80
2017-12-04T06:04:19.943Z,-0.80
2017-12-04T06:09:15.417Z,-0.70
2017-12-04T06:11:43.445Z,-0.60
2017-12-04T06:14:11.124Z,-0.50
2017-12-04T06:16:39.118Z,-0.50
2017-12-04T06:19:06.775Z,-0.50
2017-12-04T06:21:34.563Z,-0.40
2017-12-04T06:24:02.188Z,-0.40
2017-12-04T06:26:29.816Z,-0.50
2017-12-04T06:28:57.500Z,-0.80
2017-12-04T06:31:25.132Z,-0.70
2017-12-04T06:33:52.782Z,-0.70
2017-12-04T06:36:20.438Z,-0.60
2017-12-04T06:38:48.083Z,-0.60
2017-12-04T06:41:15.691Z,-0.70
2017-12-04T06:43:43.368Z,-0.60
2017-12-04T06:48:50.467Z,-0.60
2017-12-04T06:51:18.100Z,-0.60
2017-12-04T06:53:45.729Z,-0.50
2017-12-04T06:56:13.419Z,-0.50
2017-12-04T07:01:08.667Z,-0.60
2017-12-04T07:03:36.355Z,-0.50
2017-12-04T07:06:03.988Z,-0.50
2017-12-04T07:08:31.617Z,-0.50
2017-12-04T07:13:26.924Z,-0.50
2017-12-04T07:15:54.559Z,-0.40
2017-12-04T07:18:23.257Z,-0.40
2017-12-04T07:20:50.815Z,-0.50
2017-12-04T07:23:18.445Z,-0.40
2017-12-04T07:25:46.258Z,-0.40
2017-12-04T07:30:42.350Z,-0.50
2017-12-04T07:33:10.028Z,-0.50
2017-12-04T07:35:37.660Z,-0.40
2017-12-04T07:38:05.362Z,-0.70
2017-12-04T07:40:32.968Z,-0.80
2017-12-04T07:43:00.603Z,-0.80
2017-12-04T07:45:28.237Z,-0.80
2017-12-04T07:47:56.165Z,-0.90
2017-12-04T07:50:23.794Z,-1.00
2017-12-04T07:52:51.423Z,-1.10
2017-12-04T07:55:19.108Z,-1.20
2017-12-04T08:00:14.375Z,-1.00
2017-12-04T08:02:42.437Z,-1.20
2017-12-04T08:07:49.208Z,-1.20
2017-12-04T08:10:16.832Z,-1.20
2017-12-04T08:12:44.462Z,-1.10
2017-12-04T08:15:12.312Z,-1.10
2017-12-04T08:17:39.946Z,-1.10
2017-12-04T08:20:07.559Z,-1.10
2017-12-04T08:22:35.235Z,-1.00
2017-12-04T08:25:03.658Z,-1.10
2017-12-04T08:27:31.306Z,-1.10
2017-12-04T08:29:59.195Z,-0.90
2017-12-04T08:32:26.819Z,-0.90
2017-12-04T08:34:54.452Z,-1.00
2017-12-04T08:37:22.119Z,-1.00
2017-12-04T08:39:49.743Z,-1.00
2017-12-04T08:42:17.375Z,-0.90
2017-12-04T08:44:45.073Z,-0.80
2017-12-04T08:47:12.731Z,-0.80
2017-12-04T08:49:41.157Z,-0.80
2017-12-04T08:52:09.059Z,-0.60
2017-12-04T08:54:36.986Z,-0.70
2017-12-04T08:57:05.556Z,-0.60
2017-12-04T08:59:33.244Z,-0.30
2017-12-04T09:02:03.950Z,-0.40
2017-12-04T09:04:39.654Z,-0.60
2017-12-04T09:06:59.628Z,-0.40
2017-12-04T09:09:27.259Z,-0.30
2017-12-04T09:11:54.878Z,0.00
2017-12-04T09:14:22.555Z,0.10
2017-12-04T09:19:29.509Z,0.40
2017-12-04T09:21:57.131Z,0.30
2017-12-04T09:27:08.492Z,0.10
2017-12-04T09:29:36.091Z,0.10
2017-12-04T09:32:03.719Z,0.30
2017-12-04T09:34:31.752Z,0.50
2017-12-04T09:36:59.378Z,0.70
2017-12-04T09:39:27.942Z,0.80
2017-12-04T09:41:55.625Z,0.90
2017-12-04T09:44:23.255Z,1.00
2017-12-04T09:46:50.873Z,1.00
2017-12-04T09:49:18.708Z,1.10
2017-12-04T09:51:46.337Z,1.10
2017-12-04T09:54:13.952Z,1.10
2017-12-04T09:56:41.922Z,1.00
2017-12-04T09:59:10.375Z,1.10
2017-12-04T10:01:38.001Z,1.30
2017-12-04T10:04:05.691Z,1.20
2017-12-04T10:06:33.306Z,1.20
2017-12-04T10:09:01.650Z,1.20
2017-12-04T10:11:29.733Z,1.20
2017-12-04T10:13:57.357Z,1.30
2017-12-04T10:16:24.983Z,1.40
2017-12-04T10:18:52.674Z,1.40
2017-12-04T10:23:47.915Z,1.60
2017-12-04T10:26:15.756Z,1.50
2017-12-04T10:28:43.378Z,1.50
2017-12-04T10:31:11.002Z,1.60
2017-12-04T10:33:38.832Z,1.70
2017-12-04T10:36:07.312Z,1.70
2017-12-04T10:41:02.629Z,1.60
2017-12-04T10:43:30.259Z,1.40
2017-12-04T10:45:57.882Z,1.50
2017-12-04T10:48:25.712Z,1.60
2017-12-04T10:53:32.495Z,1.70
2017-12-04T10:56:00.933Z,1.90
2017-12-04T10:58:28.567Z,1.90
2017-12-04T11:00:57.275Z,1.40
2017-12-04T11:03:24.910Z,1.70
2017-12-04T11:05:52.544Z,1.80
2017-12-04T11:08:20.228Z,2.00
2017-12-04T11:10:48.798Z,1.90
2017-12-04T11:13:16.429Z,1.90
2017-12-04T11:15:44.472Z,1.90
2017-12-04T11:18:12.095Z,2.00
2017-12-04T11:20:39.715Z,1.90
2017-12-04T11:23:07.387Z,2.00
2017-12-04T11:28:15.878Z,1.90
2017-12-04T11:30:43.494Z,1.90
2017-12-04T11:33:11.126Z,2.00
2017-12-04T11:35:39.591Z,2.00
2017-12-04T11:38:07.214Z,1.70
2017-12-04T11:40:34.837Z,1.40
2017-12-04T11:43:02.521Z,1.30
2017-12-04T11:45:30.140Z,1.10
2017-12-04T11:47:57.762Z,1.20
2017-12-04T11:50:25.662Z,1.10
2017-12-04T11:52:53.300Z,1.00
2017-12-04T11:55:20.929Z,1.10
2017-12-04T12:00:16.260Z,0.90
2017-12-04T12:02:43.990Z,0.90
2017-12-04T12:05:11.824Z,0.90
2017-12-04T12:07:39.440Z,0.80
2017-12-04T12:10:07.065Z,0.80
2017-12-04T12:12:34.891Z,0.70
2017-12-04T12:15:03.467Z,0.70
2017-12-04T12:17:31.105Z,0.60
2017-12-04T12:22:26.416Z,0.80
2017-12-04T12:24:54.036Z,0.60
2017-12-04T12:27:21.876Z,0.70
2017-12-04T12:29:49.512Z,1.00
2017-12-04T12:32:17.131Z,0.80
2017-12-04T12:34:44.808Z,0.90
2017-12-04T12:37:12.432Z,1.00
2017-12-04T12:39:40.060Z,1.00
2017-12-04T12:42:07.879Z,0.80
2017-12-04T12:44:36.280Z,0.90
2017-12-04T12:47:03.899Z,1.00
2017-12-04T12:49:31.575Z,1.00
2017-12-04T12:51:59.198Z,1.00
2017-12-04T12:57:05.993Z,1.00
2017-12-04T12:59:34.544Z,1.10
2017-12-04T13:02:02.174Z,1.10
2017-12-04T13:04:30.004Z,1.20
2017-12-04T13:06:57.628Z,1.20
2017-12-04T13:09:25.262Z,1.20
2017-12-04T13:11:53.122Z,1.40
2017-12-04T13:14:20.741Z,1.60
2017-12-04T13:16:48.363Z,1.50
2017-12-04T13:19:16.042Z,1.30
2017-12-04T13:21:45.515Z,1.20
2017-12-04T13:24:13.139Z,1.10
2017-12-04T13:26:40.811Z,1.10
2017-12-04T13:29:08.443Z,1.30
2017-12-04T13:34:24.643Z,1.20
2017-12-04T13:36:52.276Z,1.40
2017-12-04T13:39:19.902Z,1.20
2017-12-04T13:41:47.571Z,1.30
2017-12-04T13:44:15.191Z,1.40
2017-12-04T13:46:42.814Z,1.40
2017-12-04T13:51:38.261Z,1.60
2017-12-04T13:54:06.704Z,1.50
2017-12-04T13:56:34.375Z,1.50
2017-12-04T13:59:02.002Z,1.50
2017-12-04T14:01:29.630Z,1.50
2017-12-04T14:03:57.295Z,1.50
2017-12-04T14:06:24.915Z,1.50
2017-12-04T14:11:20.486Z,1.70
2017-12-04T14:13:48.133Z,1.60
2017-12-04T14:16:15.727Z,1.50
2017-12-04T14:18:43.413Z,1.50
2017-12-04T14:21:11.041Z,1.50
2017-12-04T14:23:38.660Z,1.50
2017-12-04T14:26:06.496Z,1.40
2017-12-04T14:28:34.128Z,1.40
2017-12-04T14:31:01.756Z,1.40
2017-12-04T14:33:29.747Z,1.40
2017-12-04T14:35:57.374Z,1.30
2017-12-04T14:38:25.005Z,1.30
2017-12-04T14:40:52.832Z,1.30
2017-12-04T14:43:20.451Z,1.30
2017-12-04T14:45:48.091Z,1.30
2017-12-04T14:48:15.767Z,1.50
2017-12-04T14:53:24.756Z,1.40
2017-12-04T14:55:52.378Z,1.50
2017-12-04T14:58:19.997Z,1.70
2017-12-04T15:00:52.271Z,1.80
2017-12-04T15:05:58.674Z,1.50
2017-12-04T15:08:29.247Z,1.40
2017-12-04T15:10:56.883Z,1.50
2017-12-04T15:13:24.712Z,1.70
2017-12-04T15:15:52.335Z,1.60
2017-12-04T15:18:19.961Z,1.50
2017-12-04T15:20:47.640Z,1.40
2017-12-04T15:23:15.265Z,1.40
2017-12-04T15:25:42.887Z,1.40
2017-12-04T15:28:11.424Z,1.30
2017-12-04T15:30:39.052Z,1.30
2017-12-04T15:33:06.675Z,1.40
2017-12-04T15:35:34.379Z,1.30
2017-12-04T15:38:02.002Z,1.20
2017-12-04T15:40:29.622Z,1.30
2017-12-04T15:42:57.444Z,1.30
2017-12-04T15:45:25.372Z,1.20
2017-12-04T15:47:52.967Z,1.10
2017-12-04T15:50:20.649Z,1.00
2017-12-04T15:52:48.272Z,1.10
2017-12-04T15:55:15.896Z,0.90
2017-12-04T15:57:43.781Z,0.90
2017-12-04T16:00:11.413Z,1.00
2017-12-04T16:02:39.087Z,1.10
2017-12-04T16:05:06.914Z,1.10
2017-12-04T16:07:34.534Z,1.10
2017-12-04T16:10:02.169Z,1.10
2017-12-04T16:12:30.409Z,1.10
2017-12-04T16:14:57.918Z,1.30
2017-12-04T16:17:25.851Z,1.20
2017-12-04T16:19:53.655Z,1.20
2017-12-04T16:22:21.279Z,1.20
2017-12-04T16:24:49.722Z,1.10
2017-12-04T16:27:17.412Z,1.20
2017-12-04T16:29:45.031Z,1.20
2017-12-04T16:34:51.811Z,1.10
2017-12-04T16:37:19.428Z,1.40
2017-12-04T16:39:47.047Z,1.40
2017-12-04T16:42:18.883Z,1.20
2017-12-04T16:44:46.511Z,1.20
2017-12-04T16:47:14.137Z,1.40
2017-12-04T16:49:42.168Z,1.50
2017-12-04T16:52:09.796Z,1.20
2017-12-04T16:54:37.417Z,1.20
2017-12-04T16:57:05.102Z,1.10
2017-12-04T17:02:00.380Z,1.30
2017-12-04T17:04:28.279Z,1.10
2017-12-04T17:06:55.905Z,1.30
2017-12-04T17:09:23.536Z,1.40
2017-12-04T17:11:51.421Z,1.50
2017-12-04T17:14:19.044Z,1.50
2017-12-04T17:16:47.022Z,1.70
2017-12-04T17:19:14.707Z,1.40
2017-12-04T17:21:42.341Z,1.40
2017-12-04T17:24:10.777Z,1.60
2017-12-04T17:26:39.848Z,1.40
2017-12-04T17:29:07.471Z,1.30
2017-12-04T17:31:35.092Z,1.20
2017-12-04T17:34:03.432Z,1.10
2017-12-04T17:36:31.060Z,1.10
2017-12-04T17:38:58.688Z,1.30
2017-12-04T17:41:26.408Z,1.30
2017-12-04T17:43:54.028Z,1.30
2017-12-04T17:46:21.692Z,1.40
2017-12-04T17:48:49.359Z,1.40
2017-12-04T17:56:24.062Z,1.50
2017-12-04T17:58:51.687Z,1.50
2017-12-04T18:01:19.328Z,1.60
2017-12-04T18:03:47.128Z,1.70
2017-12-04T18:06:15.695Z,1.70
2017-12-04T18:08:48.034Z,1.70
2017-12-04T18:13:50.587Z,1.40
2017-12-04T18:18:58.410Z,1.20
2017-12-04T18:21:26.088Z,1.30
2017-12-04T18:26:32.852Z,1.40
2017-12-04T18:29:00.473Z,1.70
2017-12-04T18:31:28.104Z,1.70
2017-12-04T18:33:55.839Z,1.80
2017-12-04T18:36:23.465Z,1.80
2017-12-04T18:38:51.086Z,1.80
2017-12-04T18:43:59.524Z,1.90
2017-12-04T18:46:28.533Z,2.00
2017-12-04T18:48:56.785Z,1.90
2017-12-04T18:51:24.339Z,1.90
2017-12-04T18:53:52.033Z,1.90
2017-12-04T18:56:19.662Z,2.00
2017-12-04T18:58:47.284Z,2.10
2017-12-04T19:01:15.031Z,2.10
2017-12-04T19:03:42.622Z,1.90
2017-12-04T19:08:49.461Z,2.00
2017-12-04T19:11:17.114Z,2.00
2017-12-04T19:16:12.608Z,1.80
2017-12-04T19:21:19.044Z,1.90
2017-12-04T19:23:46.687Z,2.00
2017-12-04T19:31:24.956Z,2.10
2017-12-04T19:33:52.645Z,1.90
2017-12-04T19:36:20.264Z,2.00
2017-12-04T19:38:47.888Z,1.90
2017-12-04T19:41:15.595Z,1.90
2017-12-04T19:43:43.260Z,1.80
2017-12-04T19:46:10.924Z,1.50
2017-12-04T19:48:38.665Z,1.60
2017-12-04T19:51:06.302Z,1.60
2017-12-04T19:53:33.918Z,1.70
2017-12-04T19:56:01.628Z,1.80
2017-12-04T19:58:29.287Z,1.90
2017-12-04T20:03:36.577Z,1.60
2017-12-04T20:06:08.120Z,1.50
2017-12-04T20:08:40.363Z,1.70
2017-12-04T20:11:08.260Z,1.80
2017-12-04T20:13:36.375Z,1.50
2017-12-04T20:16:06.560Z,1.50
2017-12-04T20:18:32.332Z,1.60
2017-12-04T20:20:59.970Z,1.50
2017-12-04T20:23:32.084Z,1.50
2017-12-04T20:25:59.753Z,1.30
2017-12-04T20:28:27.383Z,1.20
2017-12-04T20:30:56.788Z,1.30
2017-12-04T20:33:24.400Z,1.50
2017-12-04T20:35:52.042Z,1.40
2017-12-04T20:38:19.747Z,1.50
2017-12-04T20:40:47.362Z,1.40
2017-12-04T20:43:15.012Z,1.40
2017-12-04T20:45:42.778Z,1.30
2017-12-04T20:50:49.298Z,1.40
2017-12-04T20:53:16.863Z,1.30
2017-12-04T20:55:45.789Z,1.20
2017-12-04T20:58:14.238Z,1.40
2017-12-04T21:00:41.825Z,1.30
2017-12-04T21:03:09.459Z,1.20
2017-12-04T21:05:37.416Z,1.30
2017-12-04T21:08:16.823Z,1.40
2017-12-04T21:10:56.383Z,1.40
2017-12-04T21:13:35.739Z,1.50
2017-12-04T21:18:51.880Z,1.30
2017-12-04T21:21:19.592Z,1.20
2017-12-04T21:23:47.219Z,1.20
2017-12-04T21:26:14.852Z,1.30
2017-12-04T21:28:42.545Z,1.20
2017-12-04T21:31:10.225Z,1.30
2017-12-04T21:33:37.852Z,1.20
2017-12-04T21:36:05.541Z,1.40
2017-12-04T21:38:33.190Z,1.30
2017-12-04T21:41:00.824Z,1.00
2017-12-04T21:43:29.225Z,1.20
2017-12-04T21:45:56.900Z,1.20
2017-12-04T21:48:24.556Z,1.40
2017-12-04T21:50:52.484Z,1.40
2017-12-04T21:53:19.953Z,1.40
2017-12-04T21:55:47.595Z,1.40
2017-12-04T21:58:15.303Z,1.30
2017-12-04T22:00:43.038Z,1.10
2017-12-04T22:05:49.506Z,1.40
2017-12-04T22:08:17.156Z,1.60
2017-12-04T22:10:44.797Z,1.60
2017-12-04T22:13:13.083Z,1.60
2017-12-04T22:15:40.879Z,1.40
2017-12-04T22:18:08.451Z,1.40
2017-12-04T22:20:36.158Z,1.60
2017-12-04T22:23:05.060Z,1.70
2017-12-04T22:25:32.732Z,1.80
2017-12-04T22:28:00.900Z,1.90
2017-12-04T22:30:29.121Z,1.80
2017-12-04T22:32:56.820Z,1.80
2017-12-04T22:35:24.963Z,1.70
2017-12-04T22:37:52.594Z,1.80
2017-12-04T22:40:20.224Z,1.80
2017-12-04T22:42:47.928Z,1.70
2017-12-04T22:45:15.578Z,1.60
2017-12-04T22:50:11.170Z,1.70
2017-12-04T22:52:38.918Z,1.40
2017-12-04T22:55:06.562Z,1.50
2017-12-04T22:57:35.196Z,1.50
2017-12-04T23:00:03.007Z,1.50
2017-12-04T23:02:30.605Z,1.60
2017-12-04T23:04:58.378Z,1.70
2017-12-04T23:07:26.038Z,1.70
2017-12-04T23:12:35.243Z,1.70
2017-12-04T23:15:02.909Z,1.60
2017-12-04T23:17:30.541Z,1.70
2017-12-04T23:19:59.537Z,1.50
2017-12-04T23:25:05.143Z,1.30
2017-12-04T23:27:33.102Z,1.30
2017-12-04T23:30:00.745Z,1.50
2017-12-04T23:32:28.445Z,1.30
2017-12-04T23:34:56.080Z,1.30
2017-12-04T23:37:23.774Z,1.30
2017-12-04T23:42:31.557Z,1.40
2017-12-04T23:44:59.259Z,1.60
2017-12-04T23:47:26.958Z,1.60
2017-12-04T23:49:54.585Z,1.50
2017-12-04T23:52:22.310Z,1.50
2017-12-04T23:57:29.567Z,1.50
2017-12-04T23:59:57.191Z,1.60
